sensor_id;sensor_type;location;lat;lon;timestamp;temperature;humidity
15259;DHT22;34462;51.368;12.364;2022-10-31T00:01:26;12.50;99.90
15259;DHT22;34462;51.368;12.364;2022-10-31T00:03:56;12.50;99.90
15259;DHT22;34462;51.368;12.364;2022-10-31T00:06:27;12.50;99.90
15259;DHT22;34462;51.368;12.364;2022-10-31T00:08:58;12.50;99.90
15259;DHT22;34462;51.368;12.364;2022-10-31T00:11:27;12.50;99.90
15259;DHT22;34462;51.368;12.364;2022-10-31T00:13:57;12.50;99.90
15259;DHT22;34462;51.368;12.364;2022-10-31T00:16:26;12.50;99.90
15259;DHT22;34462;51.368;12.364;2022-10-31T00:18:59;12.50;99.90
15259;DHT22;34462;51.368;12.364;2022-10-31T00:21:30;12.50;99.90
15259;DHT22;34462;51.368;12.364;2022-10-31T00:24:00;12.50;99.90
15259;DHT22;34462;51.368;12.364;2022-10-31T00:26:29;12.50;99.90
15259;DHT22;34462;51.368;12.364;2022-10-31T00:28:58;12.50;99.90
15259;DHT22;34462;51.368;12.364;2022-10-31T00:31:27;12.50;99.90
15259;DHT22;34462;51.368;12.364;2022-10-31T00:33:56;12.50;99.90
15259;DHT22;34462;51.368;12.364;2022-10-31T00:36:25;12.50;99.90
15259;DHT22;34462;51.368;12.364;2022-10-31T00:38:54;12.50;99.90
15259;DHT22;34462;51.368;12.364;2022-10-31T00:41:22;12.50;99.90
15259;DHT22;34462;51.368;12.364;2022-10-31T00:43:50;12.40;99.90
15259;DHT22;34462;51.368;12.364;2022-10-31T00:46:19;12.40;99.90
15259;DHT22;34462;51.368;12.364;2022-10-31T00:48:47;12.40;99.90
15259;DHT22;34462;51.368;12.364;2022-10-31T00:51:15;12.30;99.90
15259;DHT22;34462;51.368;12.364;2022-10-31T00:53:43;12.30;99.90
15259;DHT22;34462;51.368;12.364;2022-10-31T00:56:13;12.20;99.90
15259;DHT22;34462;51.368;12.364;2022-10-31T00:58:41;12.20;99.90
15259;DHT22;34462;51.368;12.364;2022-10-31T01:01:09;12.20;99.90
15259;DHT22;34462;51.368;12.364;2022-10-31T01:03:37;12.20;99.90
15259;DHT22;34462;51.368;12.364;2022-10-31T01:06:08;12.10;99.90
15259;DHT22;34462;51.368;12.364;2022-10-31T01:08:38;12.10;99.90
15259;DHT22;34462;51.368;12.364;2022-10-31T01:11:09;12.10;99.90
15259;DHT22;34462;51.368;12.364;2022-10-31T01:13:41;12.00;99.90
15259;DHT22;34462;51.368;12.364;2022-10-31T01:16:11;12.00;99.90
15259;DHT22;34462;51.368;12.364;2022-10-31T01:18:40;12.00;99.90
15259;DHT22;34462;51.368;12.364;2022-10-31T01:21:10;11.90;99.90
15259;DHT22;34462;51.368;12.364;2022-10-31T01:23:40;11.90;99.90
15259;DHT22;34462;51.368;12.364;2022-10-31T01:26:11;11.90;99.90
15259;DHT22;34462;51.368;12.364;2022-10-31T01:28:45;11.90;99.90
15259;DHT22;34462;51.368;12.364;2022-10-31T01:31:16;11.80;99.90
15259;DHT22;34462;51.368;12.364;2022-10-31T01:33:45;11.80;99.90
15259;DHT22;34462;51.368;12.364;2022-10-31T01:36:16;11.80;99.90
15259;DHT22;34462;51.368;12.364;2022-10-31T01:38:46;11.80;99.90
15259;DHT22;34462;51.368;12.364;2022-10-31T01:41:17;11.80;99.90
15259;DHT22;34462;51.368;12.364;2022-10-31T01:43:54;11.80;99.90
15259;DHT22;34462;51.368;12.364;2022-10-31T01:46:25;11.80;99.90
15259;DHT22;34462;51.368;12.364;2022-10-31T01:48:58;11.70;99.90
15259;DHT22;34462;51.368;12.364;2022-10-31T01:51:31;11.70;99.90
15259;DHT22;34462;51.368;12.364;2022-10-31T01:54:05;11.70;99.90
15259;DHT22;34462;51.368;12.364;2022-10-31T01:56:39;11.70;99.90
15259;DHT22;34462;51.368;12.364;2022-10-31T01:59:12;11.70;99.90
15259;DHT22;34462;51.368;12.364;2022-10-31T02:01:45;11.70;99.90
15259;DHT22;34462;51.368;12.364;2022-10-31T02:04:14;11.70;99.90
15259;DHT22;34462;51.368;12.364;2022-10-31T02:06:47;11.80;99.90
15259;DHT22;34462;51.368;12.364;2022-10-31T02:09:23;11.80;99.90
15259;DHT22;34462;51.368;12.364;2022-10-31T02:11:54;11.80;99.90
15259;DHT22;34462;51.368;12.364;2022-10-31T02:14:27;11.80;99.90
15259;DHT22;34462;51.368;12.364;2022-10-31T02:16:58;11.70;99.90
15259;DHT22;34462;51.368;12.364;2022-10-31T02:19:30;11.70;99.90
15259;DHT22;34462;51.368;12.364;2022-10-31T02:22:09;11.70;99.90
15259;DHT22;34462;51.368;12.364;2022-10-31T02:24:50;11.70;99.90
15259;DHT22;34462;51.368;12.364;2022-10-31T02:28:01;11.70;99.90
15259;DHT22;34462;51.368;12.364;2022-10-31T02:31:03;11.60;99.90
15259;DHT22;34462;51.368;12.364;2022-10-31T02:33:48;11.70;99.90
15259;DHT22;34462;51.368;12.364;2022-10-31T02:36:25;11.70;99.90
15259;DHT22;34462;51.368;12.364;2022-10-31T02:39:06;11.70;99.90
15259;DHT22;34462;51.368;12.364;2022-10-31T02:41:47;11.60;99.90
15259;DHT22;34462;51.368;12.364;2022-10-31T02:44:25;11.60;99.90
15259;DHT22;34462;51.368;12.364;2022-10-31T02:47:00;11.60;99.90
15259;DHT22;34462;51.368;12.364;2022-10-31T02:49:38;11.50;99.90
15259;DHT22;34462;51.368;12.364;2022-10-31T02:52:16;11.50;99.90
15259;DHT22;34462;51.368;12.364;2022-10-31T02:54:47;11.50;99.90
15259;DHT22;34462;51.368;12.364;2022-10-31T02:57:18;11.50;99.90
15259;DHT22;34462;51.368;12.364;2022-10-31T02:59:53;11.50;99.90
15259;DHT22;34462;51.368;12.364;2022-10-31T03:02:39;11.50;99.90
15259;DHT22;34462;51.368;12.364;2022-10-31T03:05:47;11.40;99.90
15259;DHT22;34462;51.368;12.364;2022-10-31T03:08:23;11.40;99.90
15259;DHT22;34462;51.368;12.364;2022-10-31T03:10:59;11.30;99.90
15259;DHT22;34462;51.368;12.364;2022-10-31T03:13:35;11.30;99.90
15259;DHT22;34462;51.368;12.364;2022-10-31T03:16:14;11.30;99.90
15259;DHT22;34462;51.368;12.364;2022-10-31T03:18:50;11.30;99.90
15259;DHT22;34462;51.368;12.364;2022-10-31T03:21:25;11.30;99.90
15259;DHT22;34462;51.368;12.364;2022-10-31T03:23:59;11.30;99.90
15259;DHT22;34462;51.368;12.364;2022-10-31T03:26:28;11.30;99.90
15259;DHT22;34462;51.368;12.364;2022-10-31T03:29:02;11.30;99.90
15259;DHT22;34462;51.368;12.364;2022-10-31T03:31:35;11.20;99.90
15259;DHT22;34462;51.368;12.364;2022-10-31T03:34:12;11.20;99.90
15259;DHT22;34462;51.368;12.364;2022-10-31T03:36:42;11.20;99.90
15259;DHT22;34462;51.368;12.364;2022-10-31T03:39:13;11.20;99.90
15259;DHT22;34462;51.368;12.364;2022-10-31T03:41:49;11.10;99.90
15259;DHT22;34462;51.368;12.364;2022-10-31T03:44:22;11.20;99.90
15259;DHT22;34462;51.368;12.364;2022-10-31T03:46:51;11.20;99.90
15259;DHT22;34462;51.368;12.364;2022-10-31T03:49:21;11.10;99.90
15259;DHT22;34462;51.368;12.364;2022-10-31T03:51:55;11.10;99.90
15259;DHT22;34462;51.368;12.364;2022-10-31T03:54:30;11.10;99.90
15259;DHT22;34462;51.368;12.364;2022-10-31T03:57:08;11.10;99.90
15259;DHT22;34462;51.368;12.364;2022-10-31T03:59:45;11.10;99.90
15259;DHT22;34462;51.368;12.364;2022-10-31T04:02:21;11.20;99.90
15259;DHT22;34462;51.368;12.364;2022-10-31T04:04:58;11.10;99.90
15259;DHT22;34462;51.368;12.364;2022-10-31T04:07:30;11.10;99.90
15259;DHT22;34462;51.368;12.364;2022-10-31T04:10:04;11.20;99.90
15259;DHT22;34462;51.368;12.364;2022-10-31T04:12:36;11.10;99.90
15259;DHT22;34462;51.368;12.364;2022-10-31T04:15:08;11.20;99.90
15259;DHT22;34462;51.368;12.364;2022-10-31T04:17:39;11.20;99.90
15259;DHT22;34462;51.368;12.364;2022-10-31T04:20:15;11.30;99.90
15259;DHT22;34462;51.368;12.364;2022-10-31T04:22:44;11.30;99.90
15259;DHT22;34462;51.368;12.364;2022-10-31T04:25:12;11.30;99.90
15259;DHT22;34462;51.368;12.364;2022-10-31T04:27:40;11.20;99.90
15259;DHT22;34462;51.368;12.364;2022-10-31T04:30:09;11.20;99.90
15259;DHT22;34462;51.368;12.364;2022-10-31T04:32:37;11.20;99.90
15259;DHT22;34462;51.368;12.364;2022-10-31T04:35:06;11.20;99.90
15259;DHT22;34462;51.368;12.364;2022-10-31T04:37:35;11.20;99.90
15259;DHT22;34462;51.368;12.364;2022-10-31T04:40:04;11.10;99.90
15259;DHT22;34462;51.368;12.364;2022-10-31T04:42:33;11.10;99.90
15259;DHT22;34462;51.368;12.364;2022-10-31T04:45:01;11.20;99.90
15259;DHT22;34462;51.368;12.364;2022-10-31T04:47:31;11.10;99.90
15259;DHT22;34462;51.368;12.364;2022-10-31T04:49:59;11.10;99.90
15259;DHT22;34462;51.368;12.364;2022-10-31T04:52:30;11.10;99.90
15259;DHT22;34462;51.368;12.364;2022-10-31T04:54:59;11.10;99.90
15259;DHT22;34462;51.368;12.364;2022-10-31T04:57:27;11.10;99.90
15259;DHT22;34462;51.368;12.364;2022-10-31T04:59:55;11.10;99.90
15259;DHT22;34462;51.368;12.364;2022-10-31T05:02:23;11.10;99.90
15259;DHT22;34462;51.368;12.364;2022-10-31T05:04:51;11.00;99.90
15259;DHT22;34462;51.368;12.364;2022-10-31T05:07:19;11.10;99.90
15259;DHT22;34462;51.368;12.364;2022-10-31T05:09:47;11.00;99.90
15259;DHT22;34462;51.368;12.364;2022-10-31T05:12:17;10.90;99.90
15259;DHT22;34462;51.368;12.364;2022-10-31T05:14:45;10.90;99.90
15259;DHT22;34462;51.368;12.364;2022-10-31T05:17:14;10.90;99.90
15259;DHT22;34462;51.368;12.364;2022-10-31T05:19:42;10.90;99.90
15259;DHT22;34462;51.368;12.364;2022-10-31T05:22:10;10.80;99.90
15259;DHT22;34462;51.368;12.364;2022-10-31T05:24:38;10.90;99.90
15259;DHT22;34462;51.368;12.364;2022-10-31T05:27:06;10.80;99.90
15259;DHT22;34462;51.368;12.364;2022-10-31T05:29:35;10.80;99.90
15259;DHT22;34462;51.368;12.364;2022-10-31T05:32:03;10.80;99.90
15259;DHT22;34462;51.368;12.364;2022-10-31T05:34:31;10.80;99.90
15259;DHT22;34462;51.368;12.364;2022-10-31T05:36:59;10.80;99.90
15259;DHT22;34462;51.368;12.364;2022-10-31T05:39:27;10.80;99.90
15259;DHT22;34462;51.368;12.364;2022-10-31T05:41:55;10.70;99.90
15259;DHT22;34462;51.368;12.364;2022-10-31T05:44:23;10.70;99.90
15259;DHT22;34462;51.368;12.364;2022-10-31T05:46:53;10.70;99.90
15259;DHT22;34462;51.368;12.364;2022-10-31T05:49:21;10.80;99.90
15259;DHT22;34462;51.368;12.364;2022-10-31T05:51:49;10.80;99.90
15259;DHT22;34462;51.368;12.364;2022-10-31T05:54:17;10.80;99.90
15259;DHT22;34462;51.368;12.364;2022-10-31T05:56:45;10.80;99.90
15259;DHT22;34462;51.368;12.364;2022-10-31T05:59:13;10.80;99.90
15259;DHT22;34462;51.368;12.364;2022-10-31T06:01:41;10.80;99.90
15259;DHT22;34462;51.368;12.364;2022-10-31T06:04:10;10.80;99.90
15259;DHT22;34462;51.368;12.364;2022-10-31T06:06:38;10.70;99.90
15259;DHT22;34462;51.368;12.364;2022-10-31T06:09:06;10.80;99.90
15259;DHT22;34462;51.368;12.364;2022-10-31T06:11:34;10.80;99.90
15259;DHT22;34462;51.368;12.364;2022-10-31T06:14:02;10.80;99.90
15259;DHT22;34462;51.368;12.364;2022-10-31T06:16:30;10.80;99.90
15259;DHT22;34462;51.368;12.364;2022-10-31T06:18:58;10.80;99.90
15259;DHT22;34462;51.368;12.364;2022-10-31T06:21:28;10.80;99.90
15259;DHT22;34462;51.368;12.364;2022-10-31T06:23:56;10.80;99.90
15259;DHT22;34462;51.368;12.364;2022-10-31T06:26:24;10.80;99.90
15259;DHT22;34462;51.368;12.364;2022-10-31T06:28:52;10.90;99.90
15259;DHT22;34462;51.368;12.364;2022-10-31T06:31:23;10.90;99.90
15259;DHT22;34462;51.368;12.364;2022-10-31T06:33:51;10.90;99.90
15259;DHT22;34462;51.368;12.364;2022-10-31T06:36:19;10.90;99.90
15259;DHT22;34462;51.368;12.364;2022-10-31T06:38:48;11.00;99.90
15259;DHT22;34462;51.368;12.364;2022-10-31T06:41:16;11.10;99.90
15259;DHT22;34462;51.368;12.364;2022-10-31T06:43:46;11.10;99.90
15259;DHT22;34462;51.368;12.364;2022-10-31T06:46:14;11.20;99.90
15259;DHT22;34462;51.368;12.364;2022-10-31T06:48:42;11.20;99.90
15259;DHT22;34462;51.368;12.364;2022-10-31T06:51:10;11.20;99.90
15259;DHT22;34462;51.368;12.364;2022-10-31T06:53:38;11.30;99.90
15259;DHT22;34462;51.368;12.364;2022-10-31T06:56:08;11.40;99.90
15259;DHT22;34462;51.368;12.364;2022-10-31T06:58:36;11.50;99.90
15259;DHT22;34462;51.368;12.364;2022-10-31T07:01:04;11.50;99.90
15259;DHT22;34462;51.368;12.364;2022-10-31T07:03:32;11.60;99.90
15259;DHT22;34462;51.368;12.364;2022-10-31T07:06:00;11.60;99.90
15259;DHT22;34462;51.368;12.364;2022-10-31T07:08:28;11.80;99.90
15259;DHT22;34462;51.368;12.364;2022-10-31T07:10:57;11.80;99.90
15259;DHT22;34462;51.368;12.364;2022-10-31T07:13:26;11.90;99.90
15259;DHT22;34462;51.368;12.364;2022-10-31T07:15:59;12.00;99.90
15259;DHT22;34462;51.368;12.364;2022-10-31T07:18:29;12.10;99.90
15259;DHT22;34462;51.368;12.364;2022-10-31T07:20:57;12.20;99.90
15259;DHT22;34462;51.368;12.364;2022-10-31T07:23:25;12.30;99.90
15259;DHT22;34462;51.368;12.364;2022-10-31T07:25:55;12.40;99.90
15259;DHT22;34462;51.368;12.364;2022-10-31T07:28:24;12.40;99.90
15259;DHT22;34462;51.368;12.364;2022-10-31T07:30:55;12.50;99.90
15259;DHT22;34462;51.368;12.364;2022-10-31T07:33:25;12.60;99.90
15259;DHT22;34462;51.368;12.364;2022-10-31T07:35:53;12.70;99.90
15259;DHT22;34462;51.368;12.364;2022-10-31T07:38:21;12.80;99.90
15259;DHT22;34462;51.368;12.364;2022-10-31T07:40:50;12.80;99.90
15259;DHT22;34462;51.368;12.364;2022-10-31T07:43:20;12.90;99.90
15259;DHT22;34462;51.368;12.364;2022-10-31T07:45:50;12.90;99.90
15259;DHT22;34462;51.368;12.364;2022-10-31T07:48:20;13.00;99.90
15259;DHT22;34462;51.368;12.364;2022-10-31T07:50:48;13.00;99.90
15259;DHT22;34462;51.368;12.364;2022-10-31T07:53:16;13.10;99.90
15259;DHT22;34462;51.368;12.364;2022-10-31T07:55:44;13.20;99.90
15259;DHT22;34462;51.368;12.364;2022-10-31T07:58:14;13.40;99.90
15259;DHT22;34462;51.368;12.364;2022-10-31T08:00:45;13.60;99.90
15259;DHT22;34462;51.368;12.364;2022-10-31T08:03:15;13.80;99.90
15259;DHT22;34462;51.368;12.364;2022-10-31T08:05:46;14.00;99.90
15259;DHT22;34462;51.368;12.364;2022-10-31T08:08:14;14.10;99.90
15259;DHT22;34462;51.368;12.364;2022-10-31T08:10:43;14.10;99.90
15259;DHT22;34462;51.368;12.364;2022-10-31T08:13:12;14.20;99.90
15259;DHT22;34462;51.368;12.364;2022-10-31T08:15:41;14.40;99.90
15259;DHT22;34462;51.368;12.364;2022-10-31T08:18:12;14.50;99.90
15259;DHT22;34462;51.368;12.364;2022-10-31T08:20:42;14.50;99.90
15259;DHT22;34462;51.368;12.364;2022-10-31T08:23:12;14.50;99.90
15259;DHT22;34462;51.368;12.364;2022-10-31T08:25:40;14.50;99.90
15259;DHT22;34462;51.368;12.364;2022-10-31T08:28:10;14.70;99.90
15259;DHT22;34462;51.368;12.364;2022-10-31T08:30:40;14.70;99.90
15259;DHT22;34462;51.368;12.364;2022-10-31T08:33:11;14.80;99.90
15259;DHT22;34462;51.368;12.364;2022-10-31T08:35:40;14.90;99.90
15259;DHT22;34462;51.368;12.364;2022-10-31T08:38:09;15.00;99.90
15259;DHT22;34462;51.368;12.364;2022-10-31T08:40:40;15.10;99.90
15259;DHT22;34462;51.368;12.364;2022-10-31T08:43:11;15.20;99.90
15259;DHT22;34462;51.368;12.364;2022-10-31T08:45:41;15.20;99.90
15259;DHT22;34462;51.368;12.364;2022-10-31T08:48:13;15.30;99.90
15259;DHT22;34462;51.368;12.364;2022-10-31T08:50:43;15.40;99.90
15259;DHT22;34462;51.368;12.364;2022-10-31T08:53:13;15.40;99.90
15259;DHT22;34462;51.368;12.364;2022-10-31T08:55:45;15.60;99.90
15259;DHT22;34462;51.368;12.364;2022-10-31T08:58:15;15.70;99.90
15259;DHT22;34462;51.368;12.364;2022-10-31T09:00:45;15.80;99.90
15259;DHT22;34462;51.368;12.364;2022-10-31T09:03:16;15.80;99.90
15259;DHT22;34462;51.368;12.364;2022-10-31T09:05:46;15.80;99.90
15259;DHT22;34462;51.368;12.364;2022-10-31T09:08:15;15.80;99.90
15259;DHT22;34462;51.368;12.364;2022-10-31T09:10:45;15.80;99.90
15259;DHT22;34462;51.368;12.364;2022-10-31T09:13:14;15.90;99.90
15259;DHT22;34462;51.368;12.364;2022-10-31T09:15:46;15.90;99.90
15259;DHT22;34462;51.368;12.364;2022-10-31T09:18:16;15.90;99.90
15259;DHT22;34462;51.368;12.364;2022-10-31T09:20:46;16.00;99.90
15259;DHT22;34462;51.368;12.364;2022-10-31T09:23:17;16.10;99.90
15259;DHT22;34462;51.368;12.364;2022-10-31T09:25:49;16.20;99.90
15259;DHT22;34462;51.368;12.364;2022-10-31T09:28:21;16.40;99.90
15259;DHT22;34462;51.368;12.364;2022-10-31T09:30:51;16.60;99.90
15259;DHT22;34462;51.368;12.364;2022-10-31T09:33:21;16.70;99.90
15259;DHT22;34462;51.368;12.364;2022-10-31T09:35:49;16.90;99.90
15259;DHT22;34462;51.368;12.364;2022-10-31T09:38:18;17.00;99.90
15259;DHT22;34462;51.368;12.364;2022-10-31T09:40:54;17.00;99.90
15259;DHT22;34462;51.368;12.364;2022-10-31T09:43:32;17.10;99.90
15259;DHT22;34462;51.368;12.364;2022-10-31T09:46:13;17.00;99.90
15259;DHT22;34462;51.368;12.364;2022-10-31T09:48:58;17.00;99.90
15259;DHT22;34462;51.368;12.364;2022-10-31T09:51:55;17.00;99.90
15259;DHT22;34462;51.368;12.364;2022-10-31T09:54:32;17.10;99.90
15259;DHT22;34462;51.368;12.364;2022-10-31T09:57:07;17.10;99.90
15259;DHT22;34462;51.368;12.364;2022-10-31T09:59:41;17.10;99.90
15259;DHT22;34462;51.368;12.364;2022-10-31T10:02:17;17.10;99.90
15259;DHT22;34462;51.368;12.364;2022-10-31T10:05:02;17.00;99.90
15259;DHT22;34462;51.368;12.364;2022-10-31T10:07:38;17.00;99.90
15259;DHT22;34462;51.368;12.364;2022-10-31T10:10:23;17.10;99.90
15259;DHT22;34462;51.368;12.364;2022-10-31T10:13:17;17.00;99.90
15259;DHT22;34462;51.368;12.364;2022-10-31T10:16:03;17.10;99.90
15259;DHT22;34462;51.368;12.364;2022-10-31T10:18:45;17.20;99.90
15259;DHT22;34462;51.368;12.364;2022-10-31T10:21:30;17.20;99.90
15259;DHT22;34462;51.368;12.364;2022-10-31T10:24:17;17.30;99.90
15259;DHT22;34462;51.368;12.364;2022-10-31T10:27:05;17.40;99.90
15259;DHT22;34462;51.368;12.364;2022-10-31T10:29:56;17.50;99.90
15259;DHT22;34462;51.368;12.364;2022-10-31T10:32:40;17.50;99.90
15259;DHT22;34462;51.368;12.364;2022-10-31T10:35:22;17.50;99.90
15259;DHT22;34462;51.368;12.364;2022-10-31T10:37:58;17.50;99.90
15259;DHT22;34462;51.368;12.364;2022-10-31T10:40:30;17.50;99.90
15259;DHT22;34462;51.368;12.364;2022-10-31T10:43:07;17.60;99.90
15259;DHT22;34462;51.368;12.364;2022-10-31T10:45:52;17.60;99.90
15259;DHT22;34462;51.368;12.364;2022-10-31T10:48:45;17.50;99.90
15259;DHT22;34462;51.368;12.364;2022-10-31T10:51:23;17.50;99.90
15259;DHT22;34462;51.368;12.364;2022-10-31T10:54:38;17.50;99.90
15259;DHT22;34462;51.368;12.364;2022-10-31T10:57:26;17.40;99.90
15259;DHT22;34462;51.368;12.364;2022-10-31T11:00:00;17.40;99.90
15259;DHT22;34462;51.368;12.364;2022-10-31T11:02:44;17.30;99.90
15259;DHT22;34462;51.368;12.364;2022-10-31T11:05:22;17.30;99.90
15259;DHT22;34462;51.368;12.364;2022-10-31T11:07:52;17.40;99.90
15259;DHT22;34462;51.368;12.364;2022-10-31T11:10:20;17.40;99.90
15259;DHT22;34462;51.368;12.364;2022-10-31T11:13:04;17.50;99.90
15259;DHT22;34462;51.368;12.364;2022-10-31T11:15:53;17.70;99.90
15259;DHT22;34462;51.368;12.364;2022-10-31T11:18:27;17.70;99.90
15259;DHT22;34462;51.368;12.364;2022-10-31T11:20:59;17.80;99.90
15259;DHT22;34462;51.368;12.364;2022-10-31T11:23:29;17.70;99.90
15259;DHT22;34462;51.368;12.364;2022-10-31T11:25:59;17.70;99.90
15259;DHT22;34462;51.368;12.364;2022-10-31T11:28:30;17.70;99.90
15259;DHT22;34462;51.368;12.364;2022-10-31T11:31:06;18.00;99.90
15259;DHT22;34462;51.368;12.364;2022-10-31T11:33:39;18.10;99.90
15259;DHT22;34462;51.368;12.364;2022-10-31T11:36:16;18.20;99.90
15259;DHT22;34462;51.368;12.364;2022-10-31T11:38:49;18.20;99.90
15259;DHT22;34462;51.368;12.364;2022-10-31T11:41:19;18.10;99.90
15259;DHT22;34462;51.368;12.364;2022-10-31T11:43:55;18.10;99.90
15259;DHT22;34462;51.368;12.364;2022-10-31T11:46:29;18.10;99.90
15259;DHT22;34462;51.368;12.364;2022-10-31T11:49:03;18.20;99.90
15259;DHT22;34462;51.368;12.364;2022-10-31T11:51:39;18.00;99.90
15259;DHT22;34462;51.368;12.364;2022-10-31T11:54:20;18.00;99.90
15259;DHT22;34462;51.368;12.364;2022-10-31T11:56:51;18.10;99.90
15259;DHT22;34462;51.368;12.364;2022-10-31T11:59:24;18.10;99.90
15259;DHT22;34462;51.368;12.364;2022-10-31T12:01:56;18.20;99.90
15259;DHT22;34462;51.368;12.364;2022-10-31T12:04:35;18.20;99.90
15259;DHT22;34462;51.368;12.364;2022-10-31T12:07:07;18.20;99.90
15259;DHT22;34462;51.368;12.364;2022-10-31T12:09:37;18.30;99.90
15259;DHT22;34462;51.368;12.364;2022-10-31T12:12:49;18.30;99.90
15259;DHT22;34462;51.368;12.364;2022-10-31T12:15:30;18.40;99.90
15259;DHT22;34462;51.368;12.364;2022-10-31T12:21:23;18.40;99.90
15259;DHT22;34462;51.368;12.364;2022-10-31T12:24:11;18.30;99.90
15259;DHT22;34462;51.368;12.364;2022-10-31T12:26:54;18.30;99.90
15259;DHT22;34462;51.368;12.364;2022-10-31T12:29:52;18.50;99.90
15259;DHT22;34462;51.368;12.364;2022-10-31T12:32:38;18.60;99.90
15259;DHT22;34462;51.368;12.364;2022-10-31T12:35:27;18.70;99.90
15259;DHT22;34462;51.368;12.364;2022-10-31T12:38:25;18.70;99.90
15259;DHT22;34462;51.368;12.364;2022-10-31T12:44:21;18.70;99.90
15259;DHT22;34462;51.368;12.364;2022-10-31T12:47:41;18.70;99.90
15259;DHT22;34462;51.368;12.364;2022-10-31T12:50:28;18.70;99.90
15259;DHT22;34462;51.368;12.364;2022-10-31T12:53:18;18.70;99.90
15259;DHT22;34462;51.368;12.364;2022-10-31T12:56:10;18.70;99.90
15259;DHT22;34462;51.368;12.364;2022-10-31T12:58:47;18.80;99.90
15259;DHT22;34462;51.368;12.364;2022-10-31T13:01:25;18.80;99.90
15259;DHT22;34462;51.368;12.364;2022-10-31T13:04:01;18.80;99.90
15259;DHT22;34462;51.368;12.364;2022-10-31T13:06:36;18.90;99.90
15259;DHT22;34462;51.368;12.364;2022-10-31T13:09:15;18.90;99.90
15259;DHT22;34462;51.368;12.364;2022-10-31T13:11:50;18.80;99.90
15259;DHT22;34462;51.368;12.364;2022-10-31T13:14:27;18.70;99.90
15259;DHT22;34462;51.368;12.364;2022-10-31T13:17:01;18.60;99.90
15259;DHT22;34462;51.368;12.364;2022-10-31T13:19:31;18.60;99.90
15259;DHT22;34462;51.368;12.364;2022-10-31T13:22:08;18.60;99.90
15259;DHT22;34462;51.368;12.364;2022-10-31T13:24:44;18.50;99.90
15259;DHT22;34462;51.368;12.364;2022-10-31T13:27:24;18.50;99.90
15259;DHT22;34462;51.368;12.364;2022-10-31T13:30:01;18.40;99.90
15259;DHT22;34462;51.368;12.364;2022-10-31T13:32:38;18.30;99.90
15259;DHT22;34462;51.368;12.364;2022-10-31T13:35:16;18.20;99.90
15259;DHT22;34462;51.368;12.364;2022-10-31T13:38:02;18.20;99.90
15259;DHT22;34462;51.368;12.364;2022-10-31T13:40:44;18.10;99.90
15259;DHT22;34462;51.368;12.364;2022-10-31T13:43:25;18.00;99.90
15259;DHT22;34462;51.368;12.364;2022-10-31T13:45:59;18.00;99.90
15259;DHT22;34462;51.368;12.364;2022-10-31T13:48:36;17.90;99.90
15259;DHT22;34462;51.368;12.364;2022-10-31T13:51:09;17.90;99.90
15259;DHT22;34462;51.368;12.364;2022-10-31T13:53:42;17.90;99.90
15259;DHT22;34462;51.368;12.364;2022-10-31T13:56:17;17.80;99.90
15259;DHT22;34462;51.368;12.364;2022-10-31T13:59:15;17.80;99.90
15259;DHT22;34462;51.368;12.364;2022-10-31T14:01:49;17.80;99.90
15259;DHT22;34462;51.368;12.364;2022-10-31T14:04:23;17.70;99.90
15259;DHT22;34462;51.368;12.364;2022-10-31T14:06:57;17.70;99.90
15259;DHT22;34462;51.368;12.364;2022-10-31T14:09:33;17.60;99.90
15259;DHT22;34462;51.368;12.364;2022-10-31T14:12:08;17.60;99.90
15259;DHT22;34462;51.368;12.364;2022-10-31T14:14:56;17.60;99.90
15259;DHT22;34462;51.368;12.364;2022-10-31T14:17:29;17.60;99.90
15259;DHT22;34462;51.368;12.364;2022-10-31T14:20:38;17.60;99.90
15259;DHT22;34462;51.368;12.364;2022-10-31T14:26:19;17.50;99.90
15259;DHT22;34462;51.368;12.364;2022-10-31T14:29:00;17.40;99.90
15259;DHT22;34462;51.368;12.364;2022-10-31T14:31:36;17.30;99.90
15259;DHT22;34462;51.368;12.364;2022-10-31T14:34:19;17.30;99.90
15259;DHT22;34462;51.368;12.364;2022-10-31T14:37:11;17.20;99.90
15259;DHT22;34462;51.368;12.364;2022-10-31T14:40:07;17.20;99.90
15259;DHT22;34462;51.368;12.364;2022-10-31T14:43:01;17.10;99.90
15259;DHT22;34462;51.368;12.364;2022-10-31T14:45:58;17.00;99.90
15259;DHT22;34462;51.368;12.364;2022-10-31T14:48:39;16.90;99.90
15259;DHT22;34462;51.368;12.364;2022-10-31T14:51:30;16.90;99.90
15259;DHT22;34462;51.368;12.364;2022-10-31T14:54:05;16.80;99.90
15259;DHT22;34462;51.368;12.364;2022-10-31T14:56:53;16.80;99.90
15259;DHT22;34462;51.368;12.364;2022-10-31T14:59:26;16.70;99.90
15259;DHT22;34462;51.368;12.364;2022-10-31T15:02:01;16.70;99.90
15259;DHT22;34462;51.368;12.364;2022-10-31T15:04:45;16.70;99.90
15259;DHT22;34462;51.368;12.364;2022-10-31T15:07:18;16.50;99.90
15259;DHT22;34462;51.368;12.364;2022-10-31T15:09:57;16.50;99.90
15259;DHT22;34462;51.368;12.364;2022-10-31T15:12:27;16.40;99.90
15259;DHT22;34462;51.368;12.364;2022-10-31T15:14:58;16.40;99.90
15259;DHT22;34462;51.368;12.364;2022-10-31T15:17:44;16.30;99.90
15259;DHT22;34462;51.368;12.364;2022-10-31T15:20:19;16.30;99.90
15259;DHT22;34462;51.368;12.364;2022-10-31T15:22:49;16.20;99.90
15259;DHT22;34462;51.368;12.364;2022-10-31T15:25:20;16.20;99.90
15259;DHT22;34462;51.368;12.364;2022-10-31T15:27:51;16.00;99.90
15259;DHT22;34462;51.368;12.364;2022-10-31T15:30:22;16.00;99.90
15259;DHT22;34462;51.368;12.364;2022-10-31T15:32:53;15.90;99.90
15259;DHT22;34462;51.368;12.364;2022-10-31T15:35:26;15.90;99.90
15259;DHT22;34462;51.368;12.364;2022-10-31T15:37:57;15.80;99.90
15259;DHT22;34462;51.368;12.364;2022-10-31T15:40:28;15.80;99.90
15259;DHT22;34462;51.368;12.364;2022-10-31T15:42:58;15.60;99.90
15259;DHT22;34462;51.368;12.364;2022-10-31T15:45:30;15.50;99.90
15259;DHT22;34462;51.368;12.364;2022-10-31T15:48:01;15.40;99.90
15259;DHT22;34462;51.368;12.364;2022-10-31T15:50:34;15.30;99.90
15259;DHT22;34462;51.368;12.364;2022-10-31T15:53:11;15.30;99.90
15259;DHT22;34462;51.368;12.364;2022-10-31T15:55:47;15.20;99.90
15259;DHT22;34462;51.368;12.364;2022-10-31T15:58:18;15.20;99.90
15259;DHT22;34462;51.368;12.364;2022-10-31T16:00:57;15.20;99.90
15259;DHT22;34462;51.368;12.364;2022-10-31T16:03:29;15.10;99.90
15259;DHT22;34462;51.368;12.364;2022-10-31T16:06:01;15.10;99.90
15259;DHT22;34462;51.368;12.364;2022-10-31T16:08:33;15.10;99.90